Time,TemperatureF,DewpointF,PressureIn,WindDirection,WindDirectionDegrees,WindSpeedMPH,WindSpeedGustMPH,Humidity,HourlyPrecipIn,Conditions,Clouds,dailyrainin,SoftwareType,DateUTC
2013-10-16 00:11:00,65.9,64.0,30.01,NE,38,0.0,5.0,93,0.00,,,0.00,weatherlink.com 1.10,2013-10-16 04:11:00,
2013-10-16 00:26:00,65.6,64.0,30.02,ENE,70,1.0,2.0,94,0.00,,,0.00,weatherlink.com 1.10,2013-10-16 04:26:00,
2013-10-16 00:41:00,65.6,64.0,30.01,NE,54,1.0,1.0,94,0.00,,,0.00,weatherlink.com 1.10,2013-10-16 04:41:00,
2013-10-16 00:56:00,65.7,64.0,30.02,NNE,14,0.0,2.0,94,0.00,,,0.00,weatherlink.com 1.10,2013-10-16 04:56:00,
2013-10-16 01:11:00,65.8,64.0,30.02,North,1,0.0,3.0,94,0.00,,,0.00,weatherlink.com 1.10,2013-10-16 05:11:00,
2013-10-16 01:26:00,65.8,64.0,30.01,NE,52,2.0,2.0,94,0.00,,,0.00,weatherlink.com 1.10,2013-10-16 05:26:00,
2013-10-16 01:41:00,65.9,64.0,30.01,NNE,16,1.0,2.0,94,0.00,,,0.00,weatherlink.com 1.10,2013-10-16 05:41:00,
2013-10-16 01:56:00,65.9,64.0,30.01,NNE,13,0.0,3.0,94,0.00,,,0.00,weatherlink.com 1.10,2013-10-16 05:56:00,
2013-10-16 02:11:00,65.7,64.0,30.01,NNE,33,0.0,1.0,94,0.00,,,0.00,weatherlink.com 1.10,2013-10-16 06:11:00,
2013-10-16 02:26:00,65.6,64.0,30.01,NE,49,1.0,2.0,94,0.00,,,0.00,weatherlink.com 1.10,2013-10-16 06:26:00,
2013-10-16 02:41:00,65.7,64.0,30.00,NE,43,0.0,1.0,94,0.00,,,0.00,weatherlink.com 1.10,2013-10-16 06:41:00,
2013-10-16 02:56:00,65.8,64.0,30.00,NNW,347,0.0,2.0,94,0.00,,,0.00,weatherlink.com 1.10,2013-10-16 06:56:00,
2013-10-16 03:11:00,65.8,64.0,30.00,NNW,343,1.0,3.0,94,0.00,,,0.00,weatherlink.com 1.10,2013-10-16 07:11:00,
2013-10-16 03:26:00,65.9,64.0,29.99,North,7,0.0,2.0,94,0.00,,,0.00,weatherlink.com 1.10,2013-10-16 07:26:00,
2013-10-16 03:41:00,65.9,64.0,29.99,North,359,0.0,5.0,93,0.00,,,0.00,weatherlink.com 1.10,2013-10-16 07:41:00,
2013-10-16 03:56:00,65.9,64.0,29.99,NNE,23,2.0,5.0,93,0.00,,,0.00,weatherlink.com 1.10,2013-10-16 07:56:00,
2013-10-16 04:11:00,65.9,64.0,29.99,North,11,0.0,3.0,93,0.00,,,0.00,weatherlink.com 1.10,2013-10-16 08:11:00,
2013-10-16 04:26:00,66.0,64.0,29.99,NNW,345,1.0,5.0,93,0.00,,,0.00,weatherlink.com 1.10,2013-10-16 08:26:00,
2013-10-16 04:41:00,66.0,64.0,29.99,NNE,13,1.0,4.0,93,0.00,,,0.00,weatherlink.com 1.10,2013-10-16 08:41:00,
2013-10-16 04:56:00,65.9,64.0,29.99,NE,43,0.0,3.0,93,0.00,,,0.00,weatherlink.com 1.10,2013-10-16 08:56:00,
2013-10-16 05:11:00,65.9,64.0,30.00,ESE,111,0.0,3.0,93,0.00,,,0.00,weatherlink.com 1.10,2013-10-16 09:11:00,
2013-10-16 05:26:00,65.8,64.0,29.99,ENE,63,1.0,4.0,93,0.00,,,0.00,weatherlink.com 1.10,2013-10-16 09:26:00,
2013-10-16 05:41:00,65.8,64.0,29.99,NE,52,1.0,3.0,93,0.00,,,0.00,weatherlink.com 1.10,2013-10-16 09:41:00,
2013-10-16 05:56:00,65.8,64.0,29.99,North,5,1.0,3.0,92,0.00,,,0.00,weatherlink.com 1.10,2013-10-16 09:56:00,
2013-10-16 06:11:00,65.6,64.0,30.00,NE,40,0.0,3.0,93,0.00,,,0.00,weatherlink.com 1.10,2013-10-16 10:11:00,
2013-10-16 06:26:00,65.4,64.0,30.00,NNE,14,0.0,4.0,94,0.00,,,0.00,weatherlink.com 1.10,2013-10-16 10:26:00,
2013-10-16 06:41:00,65.1,63.0,30.00,North,8,3.0,3.0,94,0.00,,,0.00,weatherlink.com 1.10,2013-10-16 10:41:00,
2013-10-16 06:56:00,65.0,64.0,30.01,NNE,33,1.0,2.0,95,0.00,,,0.00,weatherlink.com 1.10,2013-10-16 10:56:00,
2013-10-16 07:11:00,64.9,64.0,30.02,North,9,1.0,2.0,95,0.00,,,0.00,weatherlink.com 1.10,2013-10-16 11:11:00,
2013-10-16 07:26:00,64.8,64.0,30.02,NE,48,2.0,2.0,96,0.00,,,0.00,weatherlink.com 1.10,2013-10-16 11:26:00,
2013-10-16 07:41:00,64.7,64.0,30.02,North,359,1.0,3.0,96,0.00,,,0.00,weatherlink.com 1.10,2013-10-16 11:41:00,
2013-10-16 07:56:00,64.7,64.0,30.02,NE,44,2.0,3.0,96,0.00,,,0.00,weatherlink.com 1.10,2013-10-16 11:56:00,
2013-10-16 08:11:00,64.8,64.0,30.02,NW,324,0.0,2.0,96,0.00,,,0.00,weatherlink.com 1.10,2013-10-16 12:11:00,
2013-10-16 08:26:00,64.9,64.0,30.03,NNW,341,2.0,3.0,96,0.00,,,0.00,weatherlink.com 1.10,2013-10-16 12:26:00,
2013-10-16 08:41:00,65.0,64.0,30.03,ENE,59,2.0,3.0,96,0.00,,,0.00,weatherlink.com 1.10,2013-10-16 12:41:00,
2013-10-16 08:56:00,65.4,64.0,30.04,NW,326,1.0,3.0,95,0.00,,,0.00,weatherlink.com 1.10,2013-10-16 12:56:00,
2013-10-16 09:11:00,65.8,64.0,30.03,North,7,1.0,3.0,94,0.00,,,0.00,weatherlink.com 1.10,2013-10-16 13:11:00,
2013-10-16 09:26:00,66.2,65.0,30.04,NNW,333,1.0,4.0,94,0.00,,,0.00,weatherlink.com 1.10,2013-10-16 13:26:00,
2013-10-16 09:41:00,66.3,64.0,30.03,NNW,338,2.0,3.0,93,0.00,,,0.00,weatherlink.com 1.10,2013-10-16 13:41:00,
2013-10-16 09:56:00,66.6,64.0,30.03,North,2,1.0,4.0,92,0.00,,,0.00,weatherlink.com 1.10,2013-10-16 13:56:00,
2013-10-16 10:11:00,67.0,65.0,30.03,ENE,71,3.0,6.0,92,0.00,,,0.00,weatherlink.com 1.10,2013-10-16 14:11:00,
2013-10-16 10:26:00,67.4,64.0,30.03,NNW,341,3.0,5.0,89,0.00,,,0.00,weatherlink.com 1.10,2013-10-16 14:26:00,
2013-10-16 10:41:00,67.7,64.0,30.03,East,92,3.0,7.0,87,0.00,,,0.00,weatherlink.com 1.10,2013-10-16 14:41:00,
2013-10-16 10:56:00,67.7,64.0,30.04,ENE,75,0.0,6.0,87,0.00,,,0.00,weatherlink.com 1.10,2013-10-16 14:56:00,
2013-10-16 11:11:00,67.8,64.0,30.03,ENE,63,3.0,5.0,87,0.00,,,0.00,weatherlink.com 1.10,2013-10-16 15:11:00,
2013-10-16 11:26:00,68.1,64.0,30.04,NNW,341,1.0,6.0,87,0.00,,,0.00,weatherlink.com 1.10,2013-10-16 15:26:00,
2013-10-16 11:41:00,68.1,64.0,30.03,NNW,339,2.0,7.0,87,0.00,,,0.00,weatherlink.com 1.10,2013-10-16 15:41:00,
2013-10-16 11:56:00,68.4,64.0,30.03,NW,319,1.0,6.0,87,0.00,,,0.00,weatherlink.com 1.10,2013-10-16 15:56:00,
2013-10-16 12:11:00,68.8,64.0,30.03,NNW,344,2.0,5.0,85,0.00,,,0.00,weatherlink.com 1.10,2013-10-16 16:11:00,
2013-10-16 12:27:00,68.9,64.0,30.02,NE,41,0.0,6.0,85,0.00,,,0.00,weatherlink.com 1.10,2013-10-16 16:27:00,
2013-10-16 12:42:00,69.4,64.0,30.01,ENE,60,2.0,6.0,84,0.00,,,0.00,weatherlink.com 1.10,2013-10-16 16:42:00,
2013-10-16 12:57:00,69.4,64.0,30.01,ESE,105,1.0,6.0,84,0.00,,,0.00,weatherlink.com 1.10,2013-10-16 16:57:00,
2013-10-16 13:12:00,69.8,64.0,30.00,NE,55,4.0,6.0,82,0.00,,,0.00,weatherlink.com 1.10,2013-10-16 17:12:00,
2013-10-16 13:27:00,70.6,65.0,30.00,NNW,343,2.0,5.0,82,0.00,,,0.00,weatherlink.com 1.10,2013-10-16 17:27:00,
2013-10-16 13:42:00,70.9,65.0,29.99,NNW,331,0.0,6.0,81,0.00,,,0.00,weatherlink.com 1.10,2013-10-16 17:42:00,
2013-10-16 13:57:00,71.2,65.0,29.99,NW,320,1.0,5.0,80,0.00,,,0.00,weatherlink.com 1.10,2013-10-16 17:57:00,
2013-10-16 14:12:00,71.5,65.0,29.98,NNE,13,2.0,4.0,80,0.00,,,0.00,weatherlink.com 1.10,2013-10-16 18:12:00,
2013-10-16 14:27:00,71.8,65.0,29.98,NW,319,0.0,4.0,80,0.00,,,0.00,weatherlink.com 1.10,2013-10-16 18:27:00,
2013-10-16 14:42:00,71.7,65.0,29.98,West,274,2.0,4.0,80,0.00,,,0.00,weatherlink.com 1.10,2013-10-16 18:42:00,
2013-10-16 14:57:00,71.8,65.0,29.97,NNW,331,3.0,6.0,80,0.00,,,0.00,weatherlink.com 1.10,2013-10-16 18:57:00,
2013-10-16 15:12:00,71.8,65.0,29.97,NW,319,1.0,5.0,79,0.00,,,0.00,weatherlink.com 1.10,2013-10-16 19:12:00,
2013-10-16 15:27:00,71.9,65.0,29.97,NW,317,1.0,5.0,79,0.00,,,0.00,weatherlink.com 1.10,2013-10-16 19:27:00,
2013-10-16 15:42:00,72.2,65.0,29.96,NW,304,2.0,5.0,78,0.00,,,0.00,weatherlink.com 1.10,2013-10-16 19:42:00,
2013-10-16 15:57:00,73.2,65.0,29.96,ENE,68,6.0,7.0,75,0.00,,,0.00,weatherlink.com 1.10,2013-10-16 19:57:00,
2013-10-16 16:12:00,73.0,65.0,29.96,NW,310,3.0,4.0,76,0.00,,,0.00,weatherlink.com 1.10,2013-10-16 20:12:00,
2013-10-16 16:27:00,72.7,65.0,29.96,NW,317,4.0,4.0,77,0.00,,,0.00,weatherlink.com 1.10,2013-10-16 20:27:00,
2013-10-16 16:42:00,72.7,66.0,29.96,NNW,328,0.0,3.0,79,0.00,,,0.00,weatherlink.com 1.10,2013-10-16 20:42:00,
2013-10-16 16:57:00,72.7,66.0,29.96,NNE,13,2.0,4.0,78,0.00,,,0.00,weatherlink.com 1.10,2013-10-16 20:57:00,
2013-10-16 17:12:00,72.6,66.0,29.96,East,92,1.0,-999.0,79,-99.99,,,0.00,weatherlink.com 1.10,2013-10-16 21:12:00,
2013-10-16 17:27:00,72.5,66.0,29.95,NNE,14,0.0,4.0,79,0.00,,,0.00,weatherlink.com 1.10,2013-10-16 21:27:00,
2013-10-16 17:42:00,72.3,65.0,29.96,North,360,1.0,2.0,79,0.00,,,0.00,weatherlink.com 1.10,2013-10-16 21:42:00,
2013-10-16 17:57:00,71.9,65.0,29.96,North,4,1.0,1.0,80,0.00,,,0.00,weatherlink.com 1.10,2013-10-16 21:57:00,
2013-10-16 18:12:00,71.1,66.0,29.96,North,3,0.0,1.0,83,0.00,,,0.00,weatherlink.com 1.10,2013-10-16 22:12:00,
2013-10-16 18:27:00,70.5,66.0,29.97,North,3,0.0,0.0,85,0.00,,,0.00,weatherlink.com 1.10,2013-10-16 22:27:00,
2013-10-16 18:42:00,69.8,66.0,29.97,North,3,0.0,0.0,86,0.00,,,0.00,weatherlink.com 1.10,2013-10-16 22:42:00,
2013-10-16 18:57:00,69.6,65.0,29.97,NNE,14,0.0,1.0,86,0.00,,,0.00,weatherlink.com 1.10,2013-10-16 22:57:00,
2013-10-16 19:12:00,69.3,65.0,29.97,NNE,13,0.0,0.0,87,0.00,,,0.00,weatherlink.com 1.10,2013-10-16 23:12:00,
2013-10-16 19:27:00,68.3,65.0,29.97,NNE,13,0.0,0.0,89,0.00,,,0.00,weatherlink.com 1.10,2013-10-16 23:27:00,
2013-10-16 19:42:00,67.2,64.0,29.97,NNE,13,0.0,0.0,90,0.00,,,0.00,weatherlink.com 1.10,2013-10-16 23:42:00,
2013-10-16 19:57:00,66.4,64.0,29.98,NNE,13,0.0,0.0,92,0.00,,,0.00,weatherlink.com 1.10,2013-10-16 23:57:00,
2013-10-16 20:12:00,65.7,64.0,29.98,NNE,13,0.0,0.0,93,0.00,,,0.00,weatherlink.com 1.10,2013-10-17 00:12:00,
2013-10-16 20:27:00,65.0,63.0,29.99,NNE,13,0.0,0.0,94,0.00,,,0.00,weatherlink.com 1.10,2013-10-17 00:27:00,
2013-10-16 20:42:00,64.6,63.0,29.99,NNE,13,0.0,0.0,95,0.00,,,0.00,weatherlink.com 1.10,2013-10-17 00:42:00,
2013-10-16 20:57:00,64.3,63.0,30.00,NNE,13,0.0,0.0,95,0.00,,,0.00,weatherlink.com 1.10,2013-10-17 00:57:00,
2013-10-16 21:12:00,63.7,62.0,30.00,NNE,13,0.0,0.0,95,0.00,,,0.00,weatherlink.com 1.10,2013-10-17 01:12:00,
2013-10-16 21:27:00,63.2,62.0,30.00,NNE,13,0.0,0.0,96,0.00,,,0.00,weatherlink.com 1.10,2013-10-17 01:27:00,
2013-10-16 21:42:00,63.3,62.0,30.00,NNE,14,0.0,0.0,96,0.00,,,0.00,weatherlink.com 1.10,2013-10-17 01:42:00,
2013-10-16 21:57:00,62.8,62.0,30.00,NNE,13,0.0,0.0,96,0.00,,,0.00,weatherlink.com 1.10,2013-10-17 01:57:00,
2013-10-16 22:12:00,62.5,62.0,29.99,NNE,14,0.0,0.0,97,0.00,,,0.00,weatherlink.com 1.10,2013-10-17 02:12:00,
2013-10-16 22:27:00,62.6,62.0,30.00,NNE,13,0.0,0.0,97,0.00,,,0.00,weatherlink.com 1.10,2013-10-17 02:27:00,
2013-10-16 22:42:00,62.3,62.0,29.99,NNE,13,0.0,0.0,97,0.00,,,0.00,weatherlink.com 1.10,2013-10-17 02:42:00,
2013-10-16 22:57:00,62.1,61.0,29.99,NNE,14,0.0,1.0,97,0.00,,,0.00,weatherlink.com 1.10,2013-10-17 02:57:00,
2013-10-16 23:12:00,61.8,61.0,29.98,NNE,13,0.0,1.0,97,0.00,,,0.00,weatherlink.com 1.10,2013-10-17 03:12:00,
2013-10-16 23:27:00,61.7,61.0,29.99,NNE,14,0.0,0.0,97,0.00,,,0.00,weatherlink.com 1.10,2013-10-17 03:27:00,
2013-10-16 23:42:00,61.4,61.0,29.98,NNE,13,0.0,0.0,97,0.00,,,0.00,weatherlink.com 1.10,2013-10-17 03:42:00,
2013-10-16 23:57:00,61.2,60.0,29.98,NNE,13,0.0,0.0,97,0.00,,,0.00,weatherlink.com 1.10,2013-10-17 03:57:00,